Time;durP1;ratioP1;P1;durP2;ratioP2;P2;SDS_P1;SDS_P2;PMS_P1;PMS_P2;Temp;Humidity;BMP_temperature;BMP_pressure;BME280_temperature;BME280_humidity;BME280_pressure;Samples;Min_cycle;Max_cycle;Signal;HPM_P1;HPM_P2
2022/06/18 00:00:45;;;;;;;1.50;1.38;;;24.20;51.60;;;;;;5063914;28;20036;-48
2022/06/18 00:03:14;;;;;;;1.73;1.33;;;24.20;51.00;;;;;;5072123;28;20040;-51
2022/06/18 00:05:43;;;;;;;1.70;1.60;;;24.20;52.00;;;;;;5064421;28;20430;-50
2022/06/18 00:08:16;;;;;;;3.22;1.40;;;24.30;51.40;;;;;;5068316;28;20855;-52
2022/06/18 00:10:44;;;;;;;2.58;1.58;;;24.30;51.50;;;;;;5070150;28;20101;-48
2022/06/18 00:16:02;;;;;;;3.13;1.50;;;24.30;51.50;;;;;;5066365;28;20617;-51
2022/06/18 00:18:36;;;;;;;1.90;1.80;;;24.30;51.20;;;;;;5068088;28;20037;-48
2022/06/18 00:21:06;;;;;;;3.55;1.92;;;24.30;51.20;;;;;;5071748;28;20064;-48
2022/06/18 00:23:36;;;;;;;2.28;1.70;;;24.30;51.00;;;;;;5073206;28;20105;-49
2022/06/18 00:26:09;;;;;;;2.45;1.85;;;24.20;50.70;;;;;;5064705;28;20041;-50
2022/06/18 00:28:39;;;;;;;;;;;24.20;50.30;;;;;;5071295;28;20056;-48
2022/06/18 00:31:06;;;;;;;2.08;1.83;;;24.30;49.30;;;;;;5075520;28;19924;-48
2022/06/18 00:33:39;;;;;;;5.95;1.45;;;24.30;48.90;;;;;;5064996;28;20033;-50
2022/06/18 00:36:19;;;;;;;2.20;2.00;;;24.40;48.50;;;;;;5068760;28;20037;-50
2022/06/18 00:38:48;;;;;;;2.33;1.70;;;24.40;49.40;;;;;;5064832;28;20036;-48
2022/06/18 00:41:21;;;;;;;2.15;1.70;;;24.50;48.50;;;;;;5070314;28;20094;-48
2022/06/18 00:43:55;;;;;;;2.10;1.60;;;24.50;48.30;;;;;;5052787;28;20087;-48
2022/06/18 00:46:49;;;;;;;2.72;1.55;;;24.60;48.00;;;;;;5068065;28;20480;-48
2022/06/18 00:49:21;;;;;;;1.58;1.48;;;24.70;48.60;;;;;;5051807;28;20064;-48
2022/06/18 00:52:08;;;;;;;2.50;1.73;;;24.80;47.60;;;;;;5048765;28;20056;-48
2022/06/18 00:54:58;;;;;;;1.63;1.50;;;24.90;47.70;;;;;;5054185;28;20045;-50
2022/06/18 00:57:35;;;;;;;3.53;1.77;;;25.00;47.00;;;;;;5071610;28;20043;-50
2022/06/18 01:00:34;;;;;;;3.90;1.70;;;25.00;47.10;;;;;;5069830;28;20037;-49
2022/06/18 01:03:01;;;;;;;1.88;1.67;;;25.10;46.60;;;;;;5055078;28;20075;-49
2022/06/18 01:05:38;;;;;;;2.85;1.27;;;25.10;46.70;;;;;;5069591;28;20761;-49
2022/06/18 01:08:17;;;;;;;1.60;1.50;;;25.20;46.50;;;;;;5070965;28;20037;-48
2022/06/18 01:10:52;;;;;;;3.55;1.35;;;25.20;46.30;;;;;;5063083;28;20040;-50
2022/06/18 01:13:33;;;;;;;1.95;1.80;;;25.30;47.50;;;;;;5064487;28;20044;-48
2022/06/18 01:16:01;;;;;;;1.92;1.40;;;25.30;46.40;;;;;;5060644;28;20051;-49
2022/06/18 01:18:29;;;;;;;3.10;1.60;;;25.30;46.00;;;;;;5058505;28;20033;-50
2022/06/18 01:21:26;;;;;;;4.07;1.90;;;25.30;46.00;;;;;;5066830;28;20109;-49
2022/06/18 01:24:21;;;;;;;2.03;1.88;;;25.40;45.80;;;;;;4996763;28;20655;-51
2022/06/18 01:26:53;;;;;;;1.80;1.70;;;25.40;45.80;;;;;;5056489;28;20051;-48
2022/06/18 01:29:22;;;;;;;2.13;1.60;;;25.40;45.80;;;;;;5067578;28;20079;-49
2022/06/18 01:31:50;;;;;;;1.75;1.65;;;25.50;46.00;;;;;;5059010;28;20064;-48
2022/06/18 01:34:20;;;;;;;9.95;1.92;;;25.40;45.50;;;;;;5068876;28;20119;-48
2022/06/18 01:36:56;;;;;;;2.20;1.70;;;25.40;45.80;;;;;;5063487;28;20044;-48
2022/06/18 01:39:31;;;;;;;2.08;1.70;;;25.40;45.70;;;;;;5062069;28;20041;-49
2022/06/18 01:42:04;;;;;;;2.15;1.95;;;25.40;45.70;;;;;;5059628;28;20443;-50
2022/06/18 01:44:38;;;;;;;3.85;1.50;;;25.40;45.50;;;;;;5059786;28;20044;-48
2022/06/18 01:47:21;;;;;;;1.67;1.58;;;25.40;45.70;;;;;;5068117;28;20420;-48
2022/06/18 01:50:17;;;;;;;2.60;2.00;;;25.40;45.70;;;;;;5051511;28;20048;-50
2022/06/18 01:52:54;;;;;;;1.70;1.60;;;25.40;45.70;;;;;;5062477;28;20065;-49
2022/06/18 01:55:31;;;;;;;1.65;1.40;;;25.40;45.60;;;;;;5034583;28;20040;-50
2022/06/18 01:58:04;;;;;;;2.15;1.40;;;25.40;45.50;;;;;;5060289;28;20404;-48
2022/06/18 02:00:35;;;;;;;1.67;1.58;;;25.30;45.50;;;;;;5056994;28;20474;-49
2022/06/18 02:03:06;;;;;;;1.77;1.67;;;25.30;46.20;;;;;;5061587;28;20481;-48
2022/06/18 02:05:37;;;;;;;4.32;1.60;;;25.30;46.10;;;;;;5068089;28;20053;-52
2022/06/18 02:08:09;;;;;;;6.22;2.78;;;25.30;46.10;;;;;;5067059;28;20381;-49
2022/06/18 02:10:42;;;;;;;1.50;1.40;;;25.20;46.60;;;;;;5064901;28;20103;-48
2022/06/18 02:13:12;;;;;;;1.90;1.40;;;25.30;46.20;;;;;;5065494;28;20060;-51
2022/06/18 02:15:50;;;;;;;1.50;1.40;;;25.20;45.90;;;;;;5067172;28;20663;-49
2022/06/18 02:18:19;;;;;;;1.85;1.60;;;25.20;46.10;;;;;;5065845;28;20048;-48
2022/06/18 02:20:51;;;;;;;2.00;1.48;;;25.20;46.50;;;;;;5069815;28;20040;-48
2022/06/18 02:23:21;;;;;;;1.77;1.67;;;25.10;46.50;;;;;;5066669;28;20143;-48
2022/06/18 02:25:50;;;;;;;1.80;1.67;;;25.10;46.20;;;;;;5062958;28;20049;-48
2022/06/18 02:28:46;;;;;;;1.60;1.50;;;25.10;46.90;;;;;;5069590;28;20496;-48
2022/06/18 02:31:21;;;;;;;1.80;1.67;;;25.10;46.30;;;;;;5051276;28;20052;-49
2022/06/18 02:34:02;;;;;;;2.60;1.55;;;25.00;47.50;;;;;;5065842;28;20116;-48
2022/06/18 02:36:32;;;;;;;1.92;1.70;;;25.00;47.60;;;;;;5066865;28;20041;-54
2022/06/18 02:39:24;;;;;;;1.80;1.70;;;24.90;47.00;;;;;;5056796;28;20048;-49
2022/06/18 02:42:06;;;;;;;1.80;1.42;;;24.90;46.70;;;;;;5047963;28;20044;-49
2022/06/18 02:44:37;;;;;;;3.53;1.38;;;24.90;46.90;;;;;;5049353;28;20052;-53
2022/06/18 02:47:06;;;;;;;5.20;1.83;;;24.90;47.00;;;;;;5053201;28;20053;-48
2022/06/18 02:49:48;;;;;;;2.85;1.83;;;24.80;46.90;;;;;;5056721;28;20089;-48
2022/06/18 02:52:18;;;;;;;;;;;24.70;46.90;;;;;;5055060;28;20048;-49
2022/06/18 02:54:55;;;;;;;1.83;1.38;;;24.80;46.20;;;;;;5060808;28;20443;-52
2022/06/18 02:57:27;;;;;;;1.98;1.80;;;24.80;46.50;;;;;;5069304;28;20040;-49
2022/06/18 02:59:54;;;;;;;1.60;1.50;;;24.70;46.80;;;;;;5051918;28;20586;-50
2022/06/18 03:02:20;;;;;;;2.65;1.80;;;24.70;47.30;;;;;;5051972;28;20052;-48
2022/06/18 03:04:50;;;;;;;1.98;1.65;;;24.70;47.20;;;;;;5049962;28;20049;-50
2022/06/18 03:07:17;;;;;;;1.98;1.88;;;24.70;47.10;;;;;;5061969;28;20060;-49
2022/06/18 03:12:32;;;;;;;4.30;1.80;;;24.60;47.40;;;;;;5067851;28;20044;-48
2022/06/18 03:15:02;;;;;;;2.22;1.85;;;24.60;48.00;;;;;;5062402;28;20060;-49
2022/06/18 03:17:28;;;;;;;2.47;1.90;;;24.60;48.00;;;;;;5063954;28;20272;-48
2022/06/18 03:20:01;;;;;;;4.00;1.67;;;24.50;47.90;;;;;;5069412;28;20044;-48
2022/06/18 03:22:28;;;;;;;2.85;1.85;;;24.50;47.70;;;;;;5059693;28;20504;-48
2022/06/18 03:24:55;;;;;;;1.83;1.70;;;24.50;47.90;;;;;;5042593;28;20520;-50
2022/06/18 03:27:22;;;;;;;3.15;1.80;;;24.50;48.00;;;;;;5067489;28;20041;-48
2022/06/18 03:29:54;;;;;;;3.05;1.85;;;24.50;48.50;;;;;;5060261;28;20535;-48
2022/06/18 03:32:23;;;;;;;2.90;2.17;;;24.50;48.20;;;;;;5048242;28;20114;-51
2022/06/18 03:34:52;;;;;;;1.65;1.55;;;24.40;47.90;;;;;;5066273;28;20039;-49
2022/06/18 03:37:22;;;;;;;1.90;1.63;;;24.50;48.50;;;;;;5059174;28;20040;-48
2022/06/18 03:39:58;;;;;;;3.78;1.85;;;24.40;48.40;;;;;;5068691;28;20044;-48
2022/06/18 03:42:25;;;;;;;2.10;1.88;;;24.40;48.30;;;;;;5053203;28;20116;-50
2022/06/18 03:44:52;;;;;;;2.22;1.63;;;24.40;47.90;;;;;;5061380;28;20075;-49
2022/06/18 03:47:19;;;;;;;3.05;2.45;;;24.40;47.90;;;;;;5066039;28;20082;-51
2022/06/18 03:49:49;;;;;;;1.95;1.80;;;24.40;48.10;;;;;;5047205;28;20044;-50
2022/06/18 03:52:17;;;;;;;2.17;2.08;;;24.40;48.70;;;;;;5043372;28;20037;-47
2022/06/18 03:54:47;;;;;;;3.88;1.70;;;24.50;48.70;;;;;;5058824;28;20044;-48
2022/06/18 03:57:20;;;;;;;2.83;1.80;;;24.40;48.80;;;;;;5064937;28;20045;-50
2022/06/18 03:59:50;;;;;;;2.55;1.77;;;24.40;48.70;;;;;;5049165;28;20119;-50
2022/06/18 04:02:19;;;;;;;3.90;1.75;;;24.40;48.20;;;;;;5065814;28;20067;-48
2022/06/18 04:04:46;;;;;;;3.17;1.65;;;24.50;48.70;;;;;;5059012;28;20172;-51
2022/06/18 04:07:20;;;;;;;1.80;1.70;;;24.50;48.70;;;;;;5068369;28;20052;-49
2022/06/18 04:10:21;;;;;;;2.47;2.28;;;24.50;48.30;;;;;;5042925;28;20056;-49
2022/06/18 04:12:50;;;;;;;2.05;1.80;;;24.50;48.90;;;;;;5064800;28;20040;-50
2022/06/18 04:15:28;;;;;;;4.53;1.92;;;24.50;48.60;;;;;;5065231;28;20037;-50
2022/06/18 04:18:03;;;;;;;4.00;2.05;;;24.50;48.50;;;;;;5050906;28;20041;-48
2022/06/18 04:20:38;;;;;;;3.05;2.08;;;24.50;48.70;;;;;;5057409;28;20040;-49
2022/06/18 04:23:11;;;;;;;2.15;1.95;;;24.50;48.80;;;;;;5049924;28;20040;-48
2022/06/18 04:25:48;;;;;;;2.95;1.88;;;24.60;48.40;;;;;;5047209;28;20131;-48
2022/06/18 04:28:18;;;;;;;5.57;2.45;;;24.60;48.50;;;;;;5049309;28;20049;-49
2022/06/18 04:30:55;;;;;;;3.63;2.20;;;24.60;49.10;;;;;;5049426;28;20704;-49
2022/06/18 04:33:30;;;;;;;2.88;1.95;;;24.70;49.10;;;;;;5050890;28;20431;-49
2022/06/18 04:36:33;;;;;;;2.10;1.90;;;24.70;48.60;;;;;;5050652;28;20102;-49
2022/06/18 04:39:05;;;;;;;3.58;2.10;;;24.70;49.90;;;;;;5050288;28;20052;-50
2022/06/18 04:41:58;;;;;;;3.38;2.25;;;24.70;49.00;;;;;;5052351;28;20067;-49
2022/06/18 04:44:26;;;;;;;2.13;1.92;;;24.80;48.90;;;;;;5052943;28;20044;-50
2022/06/18 04:47:17;;;;;;;2.53;1.65;;;24.80;48.50;;;;;;5050663;28;20094;-48
2022/06/18 04:49:45;;;;;;;5.80;2.03;;;24.80;48.40;;;;;;5052617;28;20045;-49
2022/06/18 04:52:13;;;;;;;3.45;2.08;;;24.80;49.10;;;;;;5054828;28;20463;-50
2022/06/18 04:55:00;;;;;;;3.08;2.13;;;24.90;48.80;;;;;;5051597;28;20044;-49
2022/06/18 04:57:39;;;;;;;1.77;1.63;;;24.90;48.60;;;;;;5050715;28;20128;-48
2022/06/18 05:00:09;;;;;;;2.80;2.20;;;25.00;49.30;;;;;;5052667;28;20048;-48
2022/06/18 05:02:55;;;;;;;2.55;2.08;;;24.90;48.60;;;;;;5071644;28;20404;-48
2022/06/18 05:05:44;;;;;;;3.03;1.63;;;25.00;48.50;;;;;;5046977;28;20169;-49
2022/06/18 05:08:25;;;;;;;3.40;1.80;;;25.00;48.80;;;;;;5054041;28;20052;-50
2022/06/18 05:11:25;;;;;;;3.05;2.00;;;25.10;48.30;;;;;;5059159;28;20642;-49
2022/06/18 05:14:11;;;;;;;1.77;1.65;;;25.10;48.20;;;;;;5071176;28;20161;-50
2022/06/18 05:16:43;;;;;;;2.83;2.03;;;25.10;48.30;;;;;;5079842;22;20045;-47
2022/06/18 05:19:26;;;;;;;2.58;1.92;;;25.30;48.40;;;;;;5061795;28;20120;-47
2022/06/18 05:21:56;;;;;;;2.92;2.10;;;25.30;48.60;;;;;;5033714;28;20076;-47
2022/06/18 05:24:28;;;;;;;4.50;2.15;;;25.30;48.10;;;;;;5051100;28;20068;-52
2022/06/18 05:26:59;;;;;;;3.83;2.28;;;25.30;48.10;;;;;;5059743;28;20064;-47
2022/06/18 05:29:26;;;;;;;2.03;1.83;;;25.40;48.40;;;;;;5061736;28;20047;-49
2022/06/18 05:31:54;;;;;;;2.35;2.10;;;25.40;48.10;;;;;;5053547;28;20522;-47
2022/06/18 05:34:28;;;;;;;5.88;2.40;;;25.50;48.00;;;;;;5048070;28;20523;-47
2022/06/18 05:36:55;;;;;;;2.20;1.95;;;25.50;48.10;;;;;;5057350;28;20049;-48
2022/06/18 05:39:22;;;;;;;4.18;1.80;;;25.50;48.00;;;;;;5061742;28;20041;-48
2022/06/18 05:41:48;;;;;;;2.38;1.95;;;25.60;48.30;;;;;;5069465;28;20128;-49
2022/06/18 05:44:18;;;;;;;3.00;2.10;;;25.60;48.30;;;;;;5064921;28;20483;-48
2022/06/18 05:46:48;;;;;;;2.53;1.88;;;25.70;48.30;;;;;;5064299;28;20048;-48
2022/06/18 05:49:17;;;;;;;3.78;2.17;;;25.70;48.00;;;;;;5034404;28;20151;-49
2022/06/18 05:51:44;;;;;;;3.40;2.35;;;25.80;48.10;;;;;;5050072;28;20396;-49
2022/06/18 05:54:11;;;;;;;5.85;2.10;;;25.80;48.30;;;;;;5054408;28;20049;-50
2022/06/18 05:56:43;;;;;;;4.30;2.67;;;25.80;48.10;;;;;;5068135;28;20080;-48
2022/06/18 05:59:34;;;;;;;3.47;2.33;;;25.90;48.00;;;;;;5069442;28;20053;-49
2022/06/18 06:02:05;;;;;;;4.47;2.15;;;25.90;48.00;;;;;;5044925;28;20531;-50
2022/06/18 06:04:36;;;;;;;3.65;1.90;;;26.00;47.90;;;;;;5067343;28;20035;-48
2022/06/18 06:07:03;;;;;;;3.90;2.08;;;26.00;47.90;;;;;;5068819;28;20051;-49
2022/06/18 06:12:20;;;;;;;2.25;1.80;;;26.20;48.10;;;;;;5054021;28;20083;-51
2022/06/18 06:14:50;;;;;;;5.65;2.10;;;26.10;48.20;;;;;;5066093;28;20044;-49
2022/06/18 06:17:24;;;;;;;6.45;2.33;;;26.20;48.10;;;;;;5068838;28;20046;-51
2022/06/18 06:20:00;;;;;;;2.72;2.22;;;26.20;48.00;;;;;;5059774;28;20045;-51
2022/06/18 06:22:37;;;;;;;3.00;2.00;;;26.30;48.20;;;;;;5042928;28;20041;-48
2022/06/18 06:25:10;;;;;;;5.65;3.03;;;26.30;48.10;;;;;;5066802;28;20044;-48
2022/06/18 06:27:39;;;;;;;2.08;1.95;;;26.40;48.20;;;;;;5052536;28;20040;-50
2022/06/18 06:30:06;;;;;;;5.82;2.75;;;26.40;48.20;;;;;;5052344;28;20070;-49
2022/06/18 06:32:37;;;;;;;3.30;2.58;;;26.50;48.20;;;;;;5043727;28;20032;-49
2022/06/18 06:35:04;;;;;;;2.53;2.17;;;26.60;48.50;;;;;;5057300;28;20500;-53
2022/06/18 06:37:31;;;;;;;4.03;2.50;;;26.50;48.20;;;;;;5054110;28;20049;-51
2022/06/18 06:39:58;;;;;;;2.95;2.17;;;26.60;48.50;;;;;;5062756;28;20055;-52
2022/06/18 06:42:24;;;;;;;4.28;2.30;;;26.60;48.40;;;;;;5063356;28;20052;-52
2022/06/18 06:44:54;;;;;;;4.35;2.20;;;26.60;48.80;;;;;;5061163;28;20109;-52
2022/06/18 06:47:21;;;;;;;3.40;2.50;;;26.70;48.70;;;;;;5058510;28;20093;-52
2022/06/18 06:49:48;;;;;;;2.50;2.15;;;26.70;48.40;;;;;;5068890;28;20086;-53
2022/06/18 06:52:14;;;;;;;3.42;2.47;;;26.70;48.70;;;;;;5059891;28;20515;-52
2022/06/18 06:54:41;;;;;;;3.97;2.65;;;26.80;48.20;;;;;;5067062;28;20471;-53
2022/06/18 06:57:23;;;;;;;6.20;2.85;;;26.90;48.50;;;;;;5060476;28;20397;-50
2022/06/18 06:59:50;;;;;;;3.60;2.42;;;26.90;48.30;;;;;;5062930;28;20048;-52
2022/06/18 07:02:20;;;;;;;5.95;3.00;;;26.90;48.70;;;;;;5062533;28;20113;-49
2022/06/18 07:04:47;;;;;;;4.22;2.53;;;27.00;48.60;;;;;;5067819;28;20048;-51
2022/06/18 07:07:17;;;;;;;4.97;2.72;;;27.10;48.10;;;;;;5061080;28;20515;-50
2022/06/18 07:09:44;;;;;;;4.95;2.60;;;27.00;47.90;;;;;;5067688;28;20040;-50
2022/06/18 07:12:11;;;;;;;3.28;2.30;;;27.10;48.40;;;;;;5062918;28;20071;-51
2022/06/18 07:14:38;;;;;;;6.53;2.72;;;27.10;47.60;;;;;;5067248;28;20570;-52
2022/06/18 07:17:04;;;;;;;6.43;2.85;;;27.20;47.60;;;;;;5052782;28;20083;-49
2022/06/18 07:19:31;;;;;;;5.15;3.28;;;27.20;47.50;;;;;;5068140;28;20044;-53
2022/06/18 07:21:58;;;;;;;5.45;2.97;;;27.20;46.90;;;;;;5062411;28;20075;-53
2022/06/18 07:24:25;;;;;;;4.85;2.97;;;27.30;47.40;;;;;;5066553;28;20068;-52
2022/06/18 07:26:52;;;;;;;5.35;3.05;;;27.40;47.10;;;;;;5057445;28;20045;-51
2022/06/18 07:29:21;;;;;;;7.45;2.75;;;27.40;46.90;;;;;;5063992;28;20054;-52
2022/06/18 07:31:49;;;;;;;6.10;2.95;;;27.50;47.00;;;;;;5055623;28;20074;-53
2022/06/18 07:34:16;;;;;;;4.90;3.67;;;27.60;46.70;;;;;;5068393;28;20102;-53
2022/06/18 07:36:43;;;;;;;4.22;2.33;;;27.60;46.10;;;;;;5060887;28;20098;-50
2022/06/18 07:39:10;;;;;;;7.95;2.95;;;27.60;45.80;;;;;;5063987;28;20052;-48
2022/06/18 07:41:48;;;;;;;5.90;3.10;;;27.60;45.80;;;;;;5054795;28;20040;-53
2022/06/18 07:44:15;;;;;;;5.97;2.88;;;27.70;46.00;;;;;;5064210;28;20500;-52
2022/06/18 07:46:42;;;;;;;6.35;3.00;;;27.70;46.50;;;;;;5061070;28;20561;-52
2022/06/18 07:49:09;;;;;;;2.97;2.40;;;27.80;46.70;;;;;;5068686;28;20127;-50
2022/06/18 07:51:35;;;;;;;6.07;2.83;;;27.80;45.40;;;;;;5058718;28;20111;-51
2022/06/18 07:54:05;;;;;;;3.80;2.28;;;27.90;45.90;;;;;;5045116;28;20459;-50
2022/06/18 07:56:32;;;;;;;4.40;2.90;;;27.90;45.40;;;;;;5059856;28;20068;-51
2022/06/18 07:58:59;;;;;;;4.30;2.65;;;28.00;45.10;;;;;;5067537;28;20067;-54
2022/06/18 08:01:26;;;;;;;5.07;2.80;;;28.00;45.50;;;;;;5056793;28;20037;-52
2022/06/18 08:03:52;;;;;;;8.13;2.55;;;28.10;45.70;;;;;;5062581;28;20092;-51
2022/06/18 08:06:19;;;;;;;5.20;2.45;;;28.20;45.50;;;;;;5062241;28;20032;-52
2022/06/18 08:08:46;;;;;;;6.10;3.33;;;28.20;44.60;;;;;;5067680;28;20126;-52
2022/06/18 08:11:17;;;;;;;7.35;2.88;;;28.30;44.50;;;;;;5065030;28;20623;-51
2022/06/18 08:13:44;;;;;;;5.00;3.10;;;28.30;43.80;;;;;;5054666;28;20479;-51
2022/06/18 08:16:13;;;;;;;5.38;3.22;;;28.40;44.00;;;;;;5060600;28;20861;-50
2022/06/18 08:18:42;;;;;;;7.63;2.67;;;28.40;44.00;;;;;;5071294;28;20725;-51
2022/06/18 08:21:19;;;;;;;4.55;2.70;;;28.50;44.00;;;;;;5065005;28;20071;-53
2022/06/18 08:23:47;;;;;;;4.93;2.97;;;28.50;43.80;;;;;;5071000;28;20040;-50
2022/06/18 08:26:14;;;;;;;7.47;3.15;;;28.60;44.20;;;;;;5046775;28;20095;-54
2022/06/18 08:28:41;;;;;;;5.57;2.67;;;28.60;44.90;;;;;;5070944;28;20040;-52
2022/06/18 08:31:09;;;;;;;5.28;2.63;;;28.60;43.90;;;;;;5059106;28;20110;-53
2022/06/18 08:33:37;;;;;;;6.47;3.22;;;28.70;44.10;;;;;;5068723;28;20055;-52
2022/06/18 08:36:09;;;;;;;4.93;2.60;;;28.70;43.60;;;;;;5063914;28;20127;-54
2022/06/18 08:38:38;;;;;;;8.90;3.20;;;28.80;43.90;;;;;;5069888;28;20063;-53
2022/06/18 08:41:36;;;;;;;5.78;2.97;;;28.80;43.70;;;;;;5050097;28;20044;-54
2022/06/18 08:44:14;;;;;;;6.75;3.10;;;28.90;44.60;;;;;;5069264;28;20052;-54
2022/06/18 08:47:05;;;;;;;5.38;3.08;;;29.00;43.90;;;;;;5058158;28;20531;-51
2022/06/18 08:50:12;;;;;;;6.45;2.42;;;29.00;43.50;;;;;;5064274;28;20052;-53
2022/06/18 08:53:14;;;;;;;7.13;3.00;;;29.10;43.60;;;;;;4991915;28;20106;-52
2022/06/18 08:56:04;;;;;;;6.35;2.67;;;29.20;43.50;;;;;;5048052;28;20098;-53
2022/06/18 08:58:33;;;;;;;6.80;3.05;;;29.30;43.30;;;;;;5058460;28;20135;-54
2022/06/18 09:01:27;;;;;;;3.50;2.60;;;29.30;43.30;;;;;;5051166;28;20033;-54
2022/06/18 09:04:16;;;;;;;4.45;2.55;;;29.30;42.80;;;;;;5064101;28;20041;-52
2022/06/18 09:07:08;;;;;;;5.90;2.92;;;29.40;42.50;;;;;;5057531;28;20056;-53
2022/06/18 09:09:53;;;;;;;8.30;3.22;;;29.40;42.40;;;;;;5064893;28;20036;-52
2022/06/18 09:12:26;;;;;;;9.93;3.15;;;29.50;42.20;;;;;;5054917;28;20048;-52
2022/06/18 09:15:07;;;;;;;4.75;2.55;;;29.60;42.70;;;;;;5056008;28;20032;-53
2022/06/18 09:17:48;;;;;;;13.25;2.65;;;29.60;42.10;;;;;;5059299;28;20088;-53
2022/06/18 09:20:40;;;;;;;5.85;3.15;;;29.70;42.40;;;;;;5043528;28;20281;-52
2022/06/18 09:23:15;;;;;;;4.45;2.42;;;29.80;41.90;;;;;;5066500;28;20040;-54
2022/06/18 09:25:47;;;;;;;5.40;2.35;;;29.80;42.70;;;;;;5053561;28;20240;-53
2022/06/18 09:28:21;;;;;;;9.07;2.88;;;29.90;42.00;;;;;;5065004;28;20094;-54
2022/06/18 09:30:58;;;;;;;4.68;2.38;;;30.00;43.30;;;;;;5055964;28;20508;-53
2022/06/18 09:33:32;;;;;;;5.70;2.50;;;30.00;42.30;;;;;;5062528;28;20446;-54
2022/06/18 09:36:11;;;;;;;4.78;2.88;;;30.10;41.80;;;;;;5055469;28;20045;-53
2022/06/18 09:38:40;;;;;;;5.78;3.00;;;30.20;41.80;;;;;;5060782;28;20059;-53
2022/06/18 09:41:14;;;;;;;6.88;2.67;;;30.30;41.70;;;;;;5059353;28;20044;-53
2022/06/18 09:44:06;;;;;;;6.95;2.97;;;30.30;42.30;;;;;;5063985;28;20037;-54
2022/06/18 09:46:41;;;;;;;9.52;3.40;;;30.40;41.70;;;;;;5055859;28;20052;-53
2022/06/18 09:49:08;;;;;;;8.15;2.75;;;30.40;41.30;;;;;;5066534;28;20044;-49
2022/06/18 09:51:38;;;;;;;7.35;2.75;;;30.50;41.50;;;;;;5054845;28;20045;-53
2022/06/18 09:54:06;;;;;;;6.20;2.55;;;30.50;41.20;;;;;;5066160;28;20143;-53
2022/06/18 09:56:52;;;;;;;6.25;3.08;;;30.60;41.30;;;;;;5053593;28;20040;-52
2022/06/18 09:59:23;;;;;;;7.47;3.30;;;30.70;41.10;;;;;;5066694;28;20111;-53
2022/06/18 10:01:53;;;;;;;9.73;3.00;;;30.80;41.80;;;;;;5059212;28;20048;-53
2022/06/18 10:07:27;;;;;;;6.07;2.50;;;30.90;42.20;;;;;;5063380;28;20408;-53
2022/06/18 10:10:14;;;;;;;5.72;2.85;;;31.10;41.50;;;;;;5070581;28;20048;-50
2022/06/18 10:12:44;;;;;;;5.93;2.72;;;31.10;41.50;;;;;;5061162;28;20705;-52
2022/06/18 10:15:14;;;;;;;6.18;3.40;;;31.20;41.10;;;;;;5042623;28;20099;-53
2022/06/18 10:17:46;;;;;;;3.95;2.40;;;31.30;41.40;;;;;;5063640;28;20079;-53
2022/06/18 10:20:34;;;;;;;7.40;3.40;;;31.40;41.70;;;;;;5062391;28;20040;-53
2022/06/18 10:23:19;;;;;;;4.38;2.75;;;31.40;41.00;;;;;;5060120;28;20044;-53
2022/06/18 10:26:06;;;;;;;5.88;3.17;;;31.60;41.30;;;;;;5054392;28;20063;-53
2022/06/18 10:28:38;;;;;;;8.70;3.53;;;31.60;40.30;;;;;;5069260;28;20461;-50
2022/06/18 10:31:09;;;;;;;9.70;3.33;;;31.70;40.70;;;;;;5056069;28;20460;-53
2022/06/18 10:33:49;;;;;;;5.68;3.20;;;31.80;40.30;;;;;;5066854;28;20040;-52
2022/06/18 10:36:39;;;;;;;7.28;2.70;;;31.90;39.80;;;;;;5058663;28;20076;-53
2022/06/18 10:39:19;;;;;;;6.13;3.00;;;31.90;39.20;;;;;;5065635;28;20114;-53
2022/06/18 10:42:21;;;;;;;7.05;3.17;;;32.00;39.60;;;;;;5041639;28;20059;-52
2022/06/18 10:45:02;;;;;;;;;;;32.10;39.20;;;;;;5057130;28;20056;-54
2022/06/18 10:47:40;;;;;;;7.25;2.67;;;32.20;39.80;;;;;;5059162;28;19982;-51
2022/06/18 10:50:12;;;;;;;8.52;2.70;;;32.30;38.80;;;;;;5068877;28;20045;-53
2022/06/18 10:52:39;;;;;;;3.53;2.80;;;32.30;37.70;;;;;;5060341;28;20052;-52
2022/06/18 10:55:21;;;;;;;4.82;3.28;;;32.40;37.40;;;;;;5060515;28;20469;-53
2022/06/18 10:57:49;;;;;;;9.73;3.20;;;32.40;37.60;;;;;;5064461;28;20051;-49
2022/06/18 11:00:23;;;;;;;4.65;2.53;;;32.50;37.30;;;;;;5058150;28;20787;-53
2022/06/18 11:02:55;;;;;;;6.20;2.50;;;32.50;37.10;;;;;;5062651;28;20040;-53
2022/06/18 11:05:35;;;;;;;9.07;2.70;;;32.60;36.60;;;;;;5066388;28;20127;-51
2022/06/18 11:08:16;;;;;;;7.40;2.63;;;32.70;36.40;;;;;;5064155;28;20134;-53
2022/06/18 11:10:55;;;;;;;5.38;2.15;;;32.70;36.70;;;;;;5057733;28;20182;-53
2022/06/18 11:13:35;;;;;;;6.60;3.25;;;32.80;37.10;;;;;;5069637;28;20111;-54
2022/06/18 11:16:24;;;;;;;6.57;2.63;;;32.90;36.70;;;;;;5055651;28;20032;-53
2022/06/18 11:18:56;;;;;;;8.80;3.67;;;32.90;36.90;;;;;;5064400;28;20044;-52
2022/06/18 11:21:34;;;;;;;6.28;3.28;;;33.00;37.00;;;;;;5060512;28;20041;-48
2022/06/18 11:24:22;;;;;;;7.50;3.13;;;33.10;36.90;;;;;;5068848;28;20094;-49
2022/06/18 11:26:48;;;;;;;6.10;2.50;;;33.20;36.20;;;;;;5054432;28;20051;-53
2022/06/18 11:32:10;;;;;;;7.78;2.78;;;33.40;37.60;;;;;;4902930;29;20060;-47
2022/06/18 11:34:44;;;;;;;8.77;2.90;;;33.50;37.10;;;;;;4909031;29;20044;-52
2022/06/18 11:37:26;;;;;;;11.10;2.63;;;33.60;36.80;;;;;;4906787;29;20068;-46
2022/06/18 11:40:07;;;;;;;4.88;2.65;;;33.70;36.50;;;;;;4908033;29;20059;-47
2022/06/18 11:42:37;;;;;;;7.03;3.92;;;33.80;36.30;;;;;;4910347;29;20040;-47
2022/06/18 11:45:43;;;;;;;4.40;2.72;;;34.00;35.80;;;;;;4912914;29;20131;-47
2022/06/18 11:48:21;;;;;;;8.10;3.00;;;34.10;36.20;;;;;;4918012;29;20051;-47
2022/06/18 11:51:26;;;;;;;6.03;4.07;;;34.20;35.10;;;;;;4910515;29;20135;-49
2022/06/18 11:54:20;;;;;;;7.05;2.40;;;34.30;36.30;;;;;;4913575;29;20564;-47
2022/06/18 11:56:54;;;;;;;4.65;2.88;;;34.40;35.40;;;;;;4903524;29;20108;-48
2022/06/18 11:59:40;;;;;;;9.85;2.88;;;34.40;35.80;;;;;;4917013;29;20140;-48
2022/06/18 12:02:40;;;;;;;7.68;2.78;;;34.50;36.20;;;;;;4914725;29;20408;-47
2022/06/18 12:05:29;;;;;;;4.20;2.78;;;34.60;36.70;;;;;;4913683;29;20086;-48
2022/06/18 12:07:59;;;;;;;6.85;2.83;;;34.70;35.50;;;;;;4908493;29;20048;-47
2022/06/18 12:10:44;;;;;;;3.42;2.75;;;34.80;35.70;;;;;;4909091;29;20489;-49
2022/06/18 12:13:19;;;;;;;8.50;3.30;;;34.90;35.40;;;;;;4916343;29;20107;-49
2022/06/18 12:16:18;;;;;;;4.50;2.88;;;35.00;35.20;;;;;;4901654;29;20048;-48
2022/06/18 12:19:14;;;;;;;5.90;3.22;;;35.10;36.10;;;;;;4912266;29;20100;-47
2022/06/18 12:22:03;;;;;;;7.38;3.15;;;35.20;36.10;;;;;;4910628;29;20044;-48
2022/06/18 12:24:41;;;;;;;7.68;3.17;;;35.40;34.70;;;;;;4910734;29;20066;-48
2022/06/18 12:27:12;;;;;;;6.50;3.05;;;35.50;34.70;;;;;;4907609;29;20472;-49
2022/06/18 12:30:01;;;;;;;7.80;3.15;;;35.50;35.00;;;;;;4907331;29;20048;-51
2022/06/18 12:32:41;;;;;;;5.65;2.60;;;35.60;35.00;;;;;;4912587;29;20528;-48
2022/06/18 12:35:16;;;;;;;5.22;2.70;;;35.80;34.10;;;;;;4912449;29;20095;-48
2022/06/18 12:38:04;;;;;;;3.80;2.88;;;35.90;34.80;;;;;;4910120;29;20043;-52
2022/06/18 12:40:50;;;;;;;5.88;2.70;;;36.00;34.90;;;;;;4911935;29;20061;-54
2022/06/18 12:43:41;;;;;;;8.52;3.17;;;36.10;34.30;;;;;;4916065;29;20048;-50
2022/06/18 12:46:16;;;;;;;6.68;3.20;;;36.20;33.90;;;;;;4906448;29;20048;-50
2022/06/18 12:49:01;;;;;;;5.22;2.88;;;36.30;35.10;;;;;;4917858;29;20432;-52
2022/06/18 12:51:53;;;;;;;3.97;2.72;;;36.40;33.90;;;;;;4913915;29;20032;-50
2022/06/18 12:54:26;;;;;;;6.13;3.60;;;36.50;33.90;;;;;;4918807;29;20080;-50
2022/06/18 12:57:20;;;;;;;7.82;2.90;;;36.60;33.30;;;;;;4905524;29;20048;-50
2022/06/18 13:00:05;;;;;;;7.80;2.97;;;36.70;32.90;;;;;;4932502;29;20039;-54
2022/06/18 13:02:52;;;;;;;9.00;3.05;;;36.90;33.00;;;;;;4917771;29;20074;-52
2022/06/18 13:05:44;;;;;;;3.80;2.50;;;37.00;32.50;;;;;;4923666;29;20051;-51
2022/06/18 13:08:18;;;;;;;5.63;2.63;;;37.10;32.70;;;;;;4913375;29;20166;-50
2022/06/18 13:10:57;;;;;;;6.22;2.95;;;37.20;32.60;;;;;;4917764;29;20094;-51
2022/06/18 13:13:54;;;;;;;8.50;2.60;;;37.30;32.40;;;;;;4905618;29;20040;-52
2022/06/18 13:16:29;;;;;;;7.07;3.30;;;37.40;32.60;;;;;;4924662;29;20046;-51
2022/06/18 13:19:24;;;;;;;3.35;2.63;;;37.60;32.50;;;;;;4914026;29;20099;-54
2022/06/18 13:21:52;;;;;;;8.25;2.65;;;37.70;32.50;;;;;;4920004;29;20396;-51
2022/06/18 13:30:20;;;;;;;6.97;3.08;;;38.30;31.80;;;;;;4894128;29;20048;-52
2022/06/18 13:33:26;;;;;;;6.07;2.50;;;38.60;31.80;;;;;;4896683;29;20044;-53
2022/06/18 13:36:06;;;;;;;3.60;2.05;;;39.10;32.20;;;;;;4910401;29;20112;-53
2022/06/18 13:38:43;;;;;;;3.38;2.35;;;39.70;31.90;;;;;;4905675;29;20043;-54
2022/06/18 13:41:28;;;;;;;7.53;3.28;;;40.50;32.40;;;;;;4890670;29;20060;-51
2022/06/18 13:44:06;;;;;;;5.43;2.72;;;41.40;31.10;;;;;;4903429;29;20059;-52
2022/06/18 13:47:05;;;;;;;7.53;2.67;;;42.30;30.90;;;;;;4911883;29;20763;-52
2022/06/18 13:50:06;;;;;;;5.32;2.47;;;43.30;30.20;;;;;;4903733;29;20576;-48
2022/06/18 13:52:41;;;;;;;;;;;44.30;30.00;;;;;;4907047;29;20044;-50